Time,TemperatureF,DewpointF,PressureIn,WindDirection,WindDirectionDegrees,WindSpeedMPH,WindSpeedGustMPH,Humidity,HourlyPrecipIn,Conditions,Clouds,dailyrainin,SolarRadiationWatts/m^2,SoftwareType,DateUTC
2013-05-25 00:00:00,45.1,34.4,30.18,NNW,336,1.0,1.0,66,0.00,,,0.00,0,Wunderground v.1.15,2013-05-25 04:00:00,
2013-05-25 00:05:00,44.9,34.2,30.18,South,178,1.0,1.0,66,0.00,,,0.00,0,Wunderground v.1.15,2013-05-25 04:05:00,
2013-05-25 00:10:00,44.9,34.2,30.18,WNW,303,1.0,2.0,66,0.00,,,0.00,0,Wunderground v.1.15,2013-05-25 04:10:00,
2013-05-25 00:20:00,44.7,34.4,30.18,WNW,295,2.0,2.0,67,0.00,,,0.00,0,Wunderground v.1.15,2013-05-25 04:20:00,
2013-05-25 00:30:00,44.6,34.3,30.18,NNE,21,2.0,2.0,67,0.00,,,0.00,0,Wunderground v.1.15,2013-05-25 04:30:00,
2013-05-25 00:40:00,44.6,34.7,30.18,SSW,195,2.0,2.0,68,0.00,,,0.00,0,Wunderground v.1.15,2013-05-25 04:40:00,
2013-05-25 00:45:00,44.5,34.6,30.18,NE,44,2.0,3.0,68,0.00,,,0.00,0,Wunderground v.1.15,2013-05-25 04:45:00,
2013-05-25 00:55:00,44.6,34.3,30.18,ENE,59,2.0,2.0,67,0.00,,,0.00,0,Wunderground v.1.15,2013-05-25 04:55:00,
2013-05-25 01:00:00,44.5,34.2,30.18,NW,310,2.0,2.0,67,0.00,,,0.00,0,Wunderground v.1.15,2013-05-25 05:00:00,
2013-05-25 01:10:00,44.2,34.3,30.18,WNW,291,2.0,2.0,68,0.00,,,0.00,0,Wunderground v.1.15,2013-05-25 05:10:00,
2013-05-25 01:20:00,43.8,34.6,30.18,ENE,60,1.0,1.0,70,0.00,,,0.00,0,Wunderground v.1.15,2013-05-25 05:20:00,
2013-05-25 01:30:00,43.9,34.4,30.17,North,10,2.0,3.0,69,0.00,,,0.00,0,Wunderground v.1.15,2013-05-25 05:30:00,
2013-05-25 01:40:00,44.1,34.2,30.17,NW,310,2.0,2.0,68,0.00,,,0.00,0,Wunderground v.1.15,2013-05-25 05:40:00,
2013-05-25 01:50:00,43.8,34.3,30.17,NNW,339,2.0,6.0,69,0.00,,,0.00,0,Wunderground v.1.15,2013-05-25 05:50:00,
2013-05-25 02:00:00,43.7,34.2,30.16,North,355,2.0,3.0,69,0.00,,,0.00,0,Wunderground v.1.15,2013-05-25 06:00:00,
2013-05-25 02:10:00,43.7,34.2,30.17,NW,323,2.0,3.0,69,0.00,,,0.00,0,Wunderground v.1.15,2013-05-25 06:10:00,
2013-05-25 02:20:00,43.6,34.1,30.16,WNW,290,2.0,3.0,69,0.00,,,0.00,0,Wunderground v.1.15,2013-05-25 06:20:00,
2013-05-25 02:30:00,43.6,34.5,30.16,ENE,59,2.0,4.0,70,0.00,,,0.00,0,Wunderground v.1.15,2013-05-25 06:30:00,
2013-05-25 02:40:00,43.7,34.2,30.16,NNW,335,3.0,3.0,69,0.00,,,0.00,0,Wunderground v.1.15,2013-05-25 06:40:00,
2013-05-25 02:50:00,43.5,34.4,30.16,NNW,329,1.0,2.0,70,0.00,,,0.00,0,Wunderground v.1.15,2013-05-25 06:50:00,
2013-05-25 02:55:00,43.4,34.3,30.16,WNW,291,2.0,2.0,70,0.00,,,0.00,0,Wunderground v.1.15,2013-05-25 06:55:00,
2013-05-25 03:05:00,43.3,34.2,30.17,West,281,2.0,2.0,70,0.00,,,0.00,0,Wunderground v.1.15,2013-05-25 07:05:00,
2013-05-25 03:15:00,42.9,34.1,30.17,NNW,334,1.0,1.0,71,0.00,,,0.00,0,Wunderground v.1.15,2013-05-25 07:15:00,
2013-05-25 03:20:00,42.8,34.4,30.17,East,86,1.0,1.0,72,0.00,,,0.00,0,Wunderground v.1.15,2013-05-25 07:20:00,
2013-05-25 03:30:00,42.5,34.1,30.17,WSW,249,1.0,1.0,72,0.00,,,0.00,0,Wunderground v.1.15,2013-05-25 07:30:00,
2013-05-25 03:40:00,42.3,34.3,30.18,NNE,31,1.0,1.0,73,0.00,,,0.00,0,Wunderground v.1.15,2013-05-25 07:40:00,
2013-05-25 03:50:00,42.1,34.4,30.18,West,274,1.0,1.0,74,0.00,,,0.00,0,Wunderground v.1.15,2013-05-25 07:50:00,
2013-05-25 04:00:00,41.9,34.2,30.18,WNW,284,1.0,1.0,74,0.00,,,0.00,0,Wunderground v.1.15,2013-05-25 08:00:00,
2013-05-25 04:10:00,41.9,34.6,30.18,NNW,335,1.0,2.0,75,0.00,,,0.00,0,Wunderground v.1.15,2013-05-25 08:10:00,
2013-05-25 04:15:00,42.0,34.6,30.18,NW,321,2.0,2.0,75,0.00,,,0.00,0,Wunderground v.1.15,2013-05-25 08:15:00,
2013-05-25 04:25:00,42.1,34.7,30.18,West,274,1.0,2.0,75,0.00,,,0.00,0,Wunderground v.1.15,2013-05-25 08:25:00,
2013-05-25 04:35:00,41.9,34.6,30.18,NW,316,1.0,4.0,75,0.00,,,0.00,0,Wunderground v.1.15,2013-05-25 08:35:00,
2013-05-25 04:45:00,41.8,34.8,30.18,NW,312,1.0,3.0,76,0.00,,,0.00,0,Wunderground v.1.15,2013-05-25 08:45:00,
2013-05-25 04:55:00,41.5,34.8,30.18,North,350,1.0,2.0,77,0.00,,,0.00,0,Wunderground v.1.15,2013-05-25 08:55:00,
2013-05-25 05:05:00,41.3,35.0,30.18,West,271,1.0,1.0,78,0.00,,,0.00,0,Wunderground v.1.15,2013-05-25 09:05:00,
2013-05-25 05:15:00,41.3,35.0,30.18,WNW,303,1.0,1.0,78,0.00,,,0.00,0,Wunderground v.1.15,2013-05-25 09:15:00,
2013-05-25 05:25:00,41.0,34.7,30.18,West,272,0.0,1.0,78,0.00,,,0.00,0,Wunderground v.1.15,2013-05-25 09:25:00,
2013-05-25 05:35:00,40.7,34.7,30.19,WNW,301,1.0,1.0,79,0.00,,,0.00,0,Wunderground v.1.15,2013-05-25 09:35:00,
2013-05-25 05:45:00,40.4,34.7,30.19,WNW,303,0.0,2.0,80,0.00,,,0.00,0,Wunderground v.1.15,2013-05-25 09:45:00,
2013-05-25 05:55:00,40.1,34.7,30.19,NNW,340,0.0,2.0,81,0.00,,,0.00,5,Wunderground v.1.15,2013-05-25 09:55:00,
2013-05-25 06:00:00,40.0,34.6,30.19,NNW,340,0.0,0.0,81,0.00,,,0.00,9,Wunderground v.1.15,2013-05-25 10:00:00,
2013-05-25 06:10:00,39.8,34.8,30.19,North,5,0.0,1.0,82,0.00,,,0.00,14,Wunderground v.1.15,2013-05-25 10:10:00,
2013-05-25 06:20:00,40.0,34.9,30.19,WNW,290,1.0,1.0,82,0.00,,,0.00,18,Wunderground v.1.15,2013-05-25 10:20:00,
2013-05-25 06:30:00,40.4,35.3,30.20,WNW,288,1.0,1.0,82,0.00,,,0.00,26,Wunderground v.1.15,2013-05-25 10:30:00,
2013-05-25 06:40:00,41.4,36.0,30.20,NW,319,2.0,2.0,81,0.00,,,0.00,56,Wunderground v.1.15,2013-05-25 10:40:00,
2013-05-25 06:50:00,42.3,36.3,30.20,NNW,334,2.0,2.0,79,0.00,,,0.00,83,Wunderground v.1.15,2013-05-25 10:50:00,
2013-05-25 07:00:00,43.3,36.6,30.21,WNW,290,2.0,2.0,77,0.00,,,0.00,113,Wunderground v.1.15,2013-05-25 11:00:00,
2013-05-25 07:10:00,44.1,36.7,30.21,East,83,2.0,2.0,75,0.00,,,0.00,151,Wunderground v.1.15,2013-05-25 11:10:00,
2013-05-25 07:20:00,44.9,36.8,30.21,NNE,20,2.0,4.0,73,0.00,,,0.00,192,Wunderground v.1.15,2013-05-25 11:20:00,
2013-05-25 07:30:00,45.6,37.4,30.21,WNW,287,2.0,5.0,73,0.00,,,0.00,230,Wunderground v.1.15,2013-05-25 11:30:00,
2013-05-25 07:40:00,46.1,37.2,30.20,WNW,287,3.0,3.0,71,0.00,,,0.00,264,Wunderground v.1.15,2013-05-25 11:40:00,
2013-05-25 07:50:00,46.9,37.6,30.20,NNE,26,2.0,2.0,70,0.00,,,0.00,299,Wunderground v.1.15,2013-05-25 11:50:00,
2013-05-25 08:00:00,47.2,37.2,30.20,NW,315,3.0,3.0,68,0.00,,,0.00,329,Wunderground v.1.15,2013-05-25 12:00:00,
2013-05-25 08:10:00,47.7,37.3,30.21,NW,306,3.0,3.0,67,0.00,,,0.00,364,Wunderground v.1.15,2013-05-25 12:10:00,
2013-05-25 08:20:00,47.9,37.1,30.21,NW,313,4.0,4.0,66,0.00,,,0.00,396,Wunderground v.1.15,2013-05-25 12:20:00,
2013-05-25 08:30:00,48.3,37.8,30.21,NW,324,4.0,4.0,67,0.00,,,0.00,429,Wunderground v.1.15,2013-05-25 12:30:00,
2013-05-25 08:35:00,48.6,37.7,30.21,West,266,3.0,4.0,66,0.00,,,0.00,448,Wunderground v.1.15,2013-05-25 12:35:00,
2013-05-25 08:45:00,49.6,38.7,30.20,NNW,341,2.0,6.0,66,0.00,,,0.00,482,Wunderground v.1.15,2013-05-25 12:45:00,
2013-05-25 08:55:00,50.3,39.4,30.20,NW,324,3.0,4.0,66,0.00,,,0.00,515,Wunderground v.1.15,2013-05-25 12:55:00,
2013-05-25 09:05:00,50.4,38.3,30.20,ENE,66,3.0,4.0,63,0.00,,,0.00,566,Wunderground v.1.15,2013-05-25 13:05:00,
2013-05-25 09:15:00,51.1,38.5,30.20,ENE,65,3.0,3.0,62,0.00,,,0.00,619,Wunderground v.1.15,2013-05-25 13:15:00,
2013-05-25 09:25:00,51.9,38.9,30.20,ENE,58,3.0,3.0,61,0.00,,,0.00,657,Wunderground v.1.15,2013-05-25 13:25:00,
2013-05-25 09:30:00,52.1,39.1,30.20,NW,323,3.0,4.0,61,0.00,,,0.00,719,Wunderground v.1.15,2013-05-25 13:30:00,
2013-05-25 09:40:00,52.8,39.7,30.20,NE,35,3.0,3.0,61,0.00,,,0.00,759,Wunderground v.1.15,2013-05-25 13:40:00,
2013-05-25 09:50:00,53.6,38.3,30.19,NW,319,3.0,3.0,56,0.00,,,0.00,816,Wunderground v.1.15,2013-05-25 13:50:00,
2013-05-25 09:55:00,53.3,38.4,30.19,NW,324,3.0,4.0,57,0.00,,,0.00,914,Wunderground v.1.15,2013-05-25 13:55:00,
2013-05-25 10:05:00,53.7,39.3,30.18,NNE,21,3.0,4.0,58,0.00,,,0.00,190,Wunderground v.1.15,2013-05-25 14:05:00,
2013-05-25 10:15:00,54.5,37.7,30.18,ENE,69,3.0,8.0,53,0.00,,,0.00,823,Wunderground v.1.15,2013-05-25 14:15:00,
2013-05-25 10:20:00,54.4,38.1,30.18,NNE,15,3.0,5.0,54,0.00,,,0.00,846,Wunderground v.1.15,2013-05-25 14:20:00,
2013-05-25 10:30:00,54.0,37.7,30.18,SE,144,3.0,3.0,54,0.00,,,0.00,148,Wunderground v.1.15,2013-05-25 14:30:00,
2013-05-25 10:40:00,52.9,36.2,30.18,WNW,295,3.0,6.0,53,0.00,,,0.00,163,Wunderground v.1.15,2013-05-25 14:40:00,
2013-05-25 10:45:00,53.7,37.9,30.18,NNE,31,4.0,6.0,55,0.00,,,0.00,886,Wunderground v.1.15,2013-05-25 14:45:00,
2013-05-25 10:55:00,55.4,38.1,30.17,SE,132,4.0,8.0,52,0.00,,,0.00,856,Wunderground v.1.15,2013-05-25 14:55:00,
2013-05-25 11:05:00,55.5,38.6,30.18,WNW,290,5.0,6.0,53,0.00,,,0.00,863,Wunderground v.1.15,2013-05-25 15:05:00,
2013-05-25 11:15:00,56.0,37.1,30.18,NW,314,4.0,8.0,49,0.00,,,0.00,879,Wunderground v.1.15,2013-05-25 15:15:00,
2013-05-25 11:25:00,57.2,39.2,30.17,West,260,3.0,8.0,51,0.00,,,0.00,907,Wunderground v.1.15,2013-05-25 15:25:00,
2013-05-25 11:35:00,57.7,38.7,30.17,NE,39,3.0,4.0,49,0.00,,,0.00,984,Wunderground v.1.15,2013-05-25 15:35:00,
2013-05-25 11:45:00,57.0,39.0,30.16,WSW,254,3.0,13.0,51,0.00,,,0.00,925,Wunderground v.1.15,2013-05-25 15:45:00,
2013-05-25 11:55:00,57.8,39.8,30.16,NNW,335,4.0,4.0,51,0.00,,,0.00,960,Wunderground v.1.15,2013-05-25 15:55:00,
2013-05-25 12:05:00,58.3,39.2,30.16,SE,142,4.0,7.0,49,0.00,,,0.00,981,Wunderground v.1.15,2013-05-25 16:05:00,
2013-05-25 12:10:00,58.7,39.0,30.16,WNW,297,4.0,4.0,48,0.00,,,0.00,1078,Wunderground v.1.15,2013-05-25 16:10:00,
2013-05-25 12:20:00,58.9,40.3,30.16,North,6,4.0,7.0,50,0.00,,,0.00,984,Wunderground v.1.15,2013-05-25 16:20:00,
2013-05-25 12:30:00,59.6,39.9,30.15,South,181,4.0,4.0,48,0.00,,,0.00,981,Wunderground v.1.15,2013-05-25 16:30:00,
2013-05-25 12:40:00,59.7,37.2,30.15,East,91,5.0,5.0,43,0.00,,,0.00,979,Wunderground v.1.15,2013-05-25 16:40:00,
2013-05-25 12:50:00,60.2,39.3,30.14,West,273,3.0,4.0,46,0.00,,,0.00,970,Wunderground v.1.15,2013-05-25 16:50:00,
2013-05-25 13:00:00,60.3,36.5,30.14,WNW,299,5.0,5.0,41,0.00,,,0.00,977,Wunderground v.1.15,2013-05-25 17:00:00,
2013-05-25 13:10:00,60.8,38.1,30.14,WSW,246,4.0,4.0,43,0.00,,,0.00,976,Wunderground v.1.15,2013-05-25 17:10:00,
2013-05-25 13:20:00,61.1,37.2,30.14,SE,128,4.0,4.0,41,0.00,,,0.00,974,Wunderground v.1.15,2013-05-25 17:20:00,
2013-05-25 13:30:00,61.0,37.1,30.14,NW,319,4.0,4.0,41,0.00,,,0.00,977,Wunderground v.1.15,2013-05-25 17:30:00,
2013-05-25 13:40:00,61.6,39.5,30.14,South,179,4.0,4.0,44,0.00,,,0.00,976,Wunderground v.1.15,2013-05-25 17:40:00,
2013-05-25 13:50:00,61.5,37.6,30.14,SSW,212,4.0,4.0,41,0.00,,,0.00,962,Wunderground v.1.15,2013-05-25 17:50:00,
2013-05-25 14:00:00,61.7,37.7,30.13,West,266,3.0,6.0,41,0.00,,,0.00,984,Wunderground v.1.15,2013-05-25 18:00:00,
2013-05-25 14:10:00,61.8,37.8,30.14,WSW,254,4.0,4.0,41,0.00,,,0.00,953,Wunderground v.1.15,2013-05-25 18:10:00,
2013-05-25 14:20:00,61.7,39.6,30.14,West,279,4.0,4.0,44,0.00,,,0.00,984,Wunderground v.1.15,2013-05-25 18:20:00,
2013-05-25 14:30:00,62.7,39.3,30.14,SW,220,3.0,4.0,42,0.00,,,0.00,960,Wunderground v.1.15,2013-05-25 18:30:00,
2013-05-25 14:35:00,62.9,39.4,30.14,NW,316,3.0,4.0,42,0.00,,,0.00,962,Wunderground v.1.15,2013-05-25 18:35:00,
2013-05-25 14:45:00,63.2,40.3,30.13,NE,44,4.0,9.0,43,0.00,,,0.00,912,Wunderground v.1.15,2013-05-25 18:45:00,
2013-05-25 14:55:00,63.2,39.1,30.13,ENE,61,4.0,4.0,41,0.00,,,0.00,872,Wunderground v.1.15,2013-05-25 18:55:00,
2013-05-25 15:05:00,63.2,39.1,30.12,North,354,3.0,4.0,41,0.00,,,0.00,886,Wunderground v.1.15,2013-05-25 19:05:00,
2013-05-25 15:15:00,63.7,40.2,30.13,NW,317,3.0,3.0,42,0.00,,,0.00,953,Wunderground v.1.15,2013-05-25 19:15:00,
2013-05-25 15:25:00,63.8,40.3,30.12,ESE,110,4.0,4.0,42,0.00,,,0.00,912,Wunderground v.1.15,2013-05-25 19:25:00,
2013-05-25 15:35:00,64.3,39.4,30.11,West,277,4.0,4.0,40,0.00,,,0.00,858,Wunderground v.1.15,2013-05-25 19:35:00,
2013-05-25 15:45:00,63.8,37.7,30.11,North,353,5.0,5.0,38,0.00,,,0.00,846,Wunderground v.1.15,2013-05-25 19:45:00,
2013-05-25 15:50:00,64.1,40.5,30.11,SSW,202,4.0,4.0,42,0.00,,,0.00,786,Wunderground v.1.15,2013-05-25 19:50:00,
2013-05-25 16:00:00,64.7,39.8,30.11,WNW,295,4.0,4.0,40,0.00,,,0.00,780,Wunderground v.1.15,2013-05-25 20:00:00,
2013-05-25 16:10:00,64.7,38.5,30.10,NNW,343,5.0,5.0,38,0.00,,,0.00,745,Wunderground v.1.15,2013-05-25 20:10:00,
2013-05-25 16:20:00,64.9,39.3,30.10,NW,312,4.0,6.0,39,0.00,,,0.00,715,Wunderground v.1.15,2013-05-25 20:20:00,
2013-05-25 16:25:00,65.0,38.8,30.10,NNE,18,4.0,6.0,38,0.00,,,0.00,700,Wunderground v.1.15,2013-05-25 20:25:00,
2013-05-25 16:35:00,65.4,41.1,30.09,NNE,27,3.0,4.0,41,0.00,,,0.00,694,Wunderground v.1.15,2013-05-25 20:35:00,
2013-05-25 16:45:00,65.5,40.5,30.10,NNE,25,4.0,6.0,40,0.00,,,0.00,652,Wunderground v.1.15,2013-05-25 20:45:00,
2013-05-25 16:55:00,65.6,38.6,30.10,SSW,210,3.0,4.0,37,0.00,,,0.00,605,Wunderground v.1.15,2013-05-25 20:55:00,
2013-05-25 17:05:00,64.8,37.2,30.10,NNW,339,6.0,6.0,36,0.00,,,0.00,584,Wunderground v.1.15,2013-05-25 21:05:00,
2013-05-25 17:15:00,65.4,39.1,30.10,NNW,346,3.0,5.0,38,0.00,,,0.00,545,Wunderground v.1.15,2013-05-25 21:15:00,
2013-05-25 17:25:00,65.5,37.8,30.10,NW,308,4.0,5.0,36,0.00,,,0.00,552,Wunderground v.1.15,2013-05-25 21:25:00,
2013-05-25 17:30:00,65.7,38.0,30.10,ENE,65,4.0,4.0,36,0.00,,,0.00,522,Wunderground v.1.15,2013-05-25 21:30:00,
2013-05-25 17:40:00,65.6,38.6,30.10,NNE,28,4.0,4.0,37,0.00,,,0.00,455,Wunderground v.1.15,2013-05-25 21:40:00,
2013-05-25 17:45:00,65.7,38.7,30.10,WNW,285,4.0,4.0,37,0.00,,,0.00,438,Wunderground v.1.15,2013-05-25 21:45:00,
2013-05-25 17:55:00,65.5,39.9,30.10,NNE,16,4.0,8.0,39,0.00,,,0.00,406,Wunderground v.1.15,2013-05-25 21:55:00,
2013-05-25 18:05:00,65.2,36.8,30.10,North,351,4.0,4.0,35,0.00,,,0.00,378,Wunderground v.1.15,2013-05-25 22:05:00,
2013-05-25 18:15:00,64.9,36.6,30.10,ESE,119,4.0,4.0,35,0.00,,,0.00,334,Wunderground v.1.15,2013-05-25 22:15:00,
2013-05-25 18:25:00,64.5,36.2,30.10,NNW,344,4.0,10.0,35,0.00,,,0.00,309,Wunderground v.1.15,2013-05-25 22:25:00,
2013-05-25 18:35:00,64.1,36.6,30.10,East,98,5.0,8.0,36,0.00,,,0.00,269,Wunderground v.1.15,2013-05-25 22:35:00,
2013-05-25 18:40:00,64.0,36.5,30.10,NW,316,5.0,5.0,36,0.00,,,0.00,253,Wunderground v.1.15,2013-05-25 22:40:00,
2013-05-25 18:50:00,63.7,36.9,30.10,West,260,4.0,4.0,37,0.00,,,0.00,220,Wunderground v.1.15,2013-05-25 22:50:00,
2013-05-25 19:00:00,63.6,36.1,30.10,NW,318,4.0,4.0,36,0.00,,,0.00,179,Wunderground v.1.15,2013-05-25 23:00:00,
2013-05-25 19:05:00,63.5,36.0,30.10,ESE,111,4.0,4.0,36,0.00,,,0.00,160,Wunderground v.1.15,2013-05-25 23:05:00,
2013-05-25 19:15:00,62.8,36.8,30.11,NE,36,3.0,4.0,38,0.00,,,0.00,35,Wunderground v.1.15,2013-05-25 23:15:00,
2013-05-25 19:25:00,62.1,34.8,30.11,WNW,299,3.0,3.0,36,0.00,,,0.00,28,Wunderground v.1.15,2013-05-25 23:25:00,
2013-05-25 19:35:00,61.6,35.7,30.12,NW,308,2.0,4.0,38,0.00,,,0.00,25,Wunderground v.1.15,2013-05-25 23:35:00,
2013-05-25 19:40:00,61.4,36.2,30.12,NW,315,2.0,2.0,39,0.00,,,0.00,23,Wunderground v.1.15,2013-05-25 23:40:00,
2013-05-25 19:50:00,61.0,35.8,30.12,West,278,3.0,3.0,39,0.00,,,0.00,19,Wunderground v.1.15,2013-05-25 23:50:00,
2013-05-25 20:00:00,60.5,36.0,30.12,North,351,3.0,3.0,40,0.00,,,0.00,16,Wunderground v.1.15,2013-05-26 00:00:00,
2013-05-25 20:10:00,60.0,35.0,30.12,NNW,345,2.0,4.0,39,0.00,,,0.00,11,Wunderground v.1.15,2013-05-26 00:10:00,
2013-05-25 20:20:00,59.6,35.9,30.12,WSW,247,2.0,2.0,41,0.00,,,0.00,7,Wunderground v.1.15,2013-05-26 00:20:00,
2013-05-25 20:30:00,59.0,35.3,30.12,WNW,296,1.0,2.0,41,0.00,,,0.00,0,Wunderground v.1.15,2013-05-26 00:30:00,
2013-05-25 20:40:00,58.4,35.4,30.12,WNW,290,1.0,2.0,42,0.00,,,0.00,0,Wunderground v.1.15,2013-05-26 00:40:00,
2013-05-25 20:45:00,57.9,36.7,30.12,NW,319,1.0,2.0,45,0.00,,,0.00,0,Wunderground v.1.15,2013-05-26 00:45:00,
2013-05-25 20:55:00,56.9,36.3,30.12,NW,306,1.0,3.0,46,0.00,,,0.00,0,Wunderground v.1.15,2013-05-26 00:55:00,
2013-05-25 21:05:00,56.4,36.4,30.12,West,274,1.0,3.0,47,0.00,,,0.00,0,Wunderground v.1.15,2013-05-26 01:05:00,
2013-05-25 21:15:00,56.2,35.7,30.13,North,356,1.0,1.0,46,0.00,,,0.00,0,Wunderground v.1.15,2013-05-26 01:15:00,
2013-05-25 21:25:00,56.1,36.1,30.14,ENE,71,1.0,1.0,47,0.00,,,0.00,0,Wunderground v.1.15,2013-05-26 01:25:00,
2013-05-25 21:35:00,55.3,36.5,30.14,ESE,110,0.0,1.0,49,0.00,,,0.00,0,Wunderground v.1.15,2013-05-26 01:35:00,
2013-05-25 21:40:00,54.7,36.4,30.14,North,352,0.0,1.0,50,0.00,,,0.00,0,Wunderground v.1.15,2013-05-26 01:40:00,
2013-05-25 21:50:00,54.1,36.4,30.15,East,87,0.0,0.0,51,0.00,,,0.00,0,Wunderground v.1.15,2013-05-26 01:50:00,
2013-05-25 22:00:00,53.6,36.4,30.16,North,359,1.0,2.0,52,0.00,,,0.00,0,Wunderground v.1.15,2013-05-26 02:00:00,
2013-05-25 22:05:00,53.7,36.5,30.16,North,353,1.0,2.0,52,0.00,,,0.00,0,Wunderground v.1.15,2013-05-26 02:05:00,
2013-05-25 22:15:00,54.3,35.0,30.16,North,10,2.0,2.0,48,0.00,,,0.00,0,Wunderground v.1.15,2013-05-26 02:15:00,
2013-05-25 22:25:00,55.1,34.7,30.16,North,2,3.0,6.0,46,0.00,,,0.00,0,Wunderground v.1.15,2013-05-26 02:25:00,
2013-05-25 22:35:00,55.2,34.8,30.16,North,357,3.0,3.0,46,0.00,,,0.00,0,Wunderground v.1.15,2013-05-26 02:35:00,
2013-05-25 22:45:00,55.2,34.8,30.15,NNW,333,3.0,4.0,46,0.00,,,0.00,0,Wunderground v.1.15,2013-05-26 02:45:00,
2013-05-25 22:55:00,55.0,35.1,30.16,SSE,164,3.0,3.0,47,0.00,,,0.00,0,Wunderground v.1.15,2013-05-26 02:55:00,
2013-05-25 23:00:00,54.9,35.0,30.16,SW,224,3.0,3.0,47,0.00,,,0.00,0,Wunderground v.1.15,2013-05-26 03:00:00,
2013-05-25 23:10:00,54.6,35.3,30.16,WNW,290,2.0,2.0,48,0.00,,,0.00,0,Wunderground v.1.15,2013-05-26 03:10:00,
2013-05-25 23:20:00,54.4,35.6,30.16,East,80,2.0,2.0,49,0.00,,,0.00,0,Wunderground v.1.15,2013-05-26 03:20:00,
2013-05-25 23:30:00,54.1,35.3,30.17,WNW,293,2.0,2.0,49,0.00,,,0.00,0,Wunderground v.1.15,2013-05-26 03:30:00,
2013-05-25 23:40:00,53.7,35.5,30.17,WNW,283,1.0,2.0,50,0.00,,,0.00,0,Wunderground v.1.15,2013-05-26 03:40:00,
2013-05-25 23:50:00,53.2,35.5,30.17,NW,308,1.0,2.0,51,0.00,,,0.00,0,Wunderground v.1.15,2013-05-26 03:50:00,
2013-05-25 23:55:00,52.9,35.7,30.17,SSE,168,1.0,2.0,52,0.00,,,0.00,0,Wunderground v.1.15,2013-05-26 03:55:00,